Time;durP1;ratioP1;P1;durP2;ratioP2;P2;SDS_P1;SDS_P2;PMS_P1;PMS_P2;Temp;Humidity;BMP_temperature;BMP_pressure;BME280_temperature;BME280_humidity;BME280_pressure;Samples;Min_cycle;Max_cycle;Signal;HPM_P1;HPM_P2
2024/01/03 00:00:20;;;;;;;8.88;4.70;;;3.70;99.90;;;;;;5032355;28;20371;-76
2024/01/03 00:02:47;;;;;;;9.35;4.40;;;3.60;99.90;;;;;;5030588;28;20044;-76
2024/01/03 00:05:13;;;;;;;8.25;4.22;;;3.70;99.90;;;;;;5029960;28;20041;-76
2024/01/03 00:07:39;;;;;;;8.05;3.95;;;3.60;99.90;;;;;;5032469;28;20127;-76
2024/01/03 00:10:34;;;;;;;7.72;4.25;;;3.70;99.90;;;;;;5030031;28;20036;-76
2024/01/03 00:13:00;;;;;;;5.10;3.33;;;3.70;99.90;;;;;;5031780;28;20033;-76
2024/01/03 00:15:34;;;;;;;6.32;3.42;;;3.70;99.90;;;;;;5030223;28;20876;-76
2024/01/03 00:18:03;;;;;;;7.80;4.45;;;3.80;99.90;;;;;;5033639;28;21882;-75
2024/01/03 00:20:29;;;;;;;10.52;5.32;;;3.90;99.90;;;;;;5035323;28;20025;-76
2024/01/03 00:22:55;;;;;;;10.82;4.82;;;3.90;99.90;;;;;;5035634;28;20457;-75
2024/01/03 00:25:28;;;;;;;9.90;5.57;;;3.90;99.90;;;;;;5032032;28;20491;-76
2024/01/03 00:27:54;;;;;;;8.88;4.30;;;3.80;99.90;;;;;;5034013;28;20040;-76
2024/01/03 00:30:20;;;;;;;8.23;4.63;;;3.70;99.90;;;;;;5035174;28;20071;-76
2024/01/03 00:32:47;;;;;;;8.02;4.60;;;3.70;99.90;;;;;;5034047;28;20053;-76
2024/01/03 00:35:13;;;;;;;10.93;6.50;;;3.70;99.90;;;;;;5033935;28;20135;-75
2024/01/03 00:37:40;;;;;;;9.75;5.93;;;3.80;99.90;;;;;;5034893;28;20623;-76
2024/01/03 00:40:32;;;;;;;10.00;5.88;;;3.70;99.90;;;;;;5033717;28;20029;-76
2024/01/03 00:42:57;;;;;;;8.18;4.90;;;3.70;99.90;;;;;;5036108;28;20589;-76
2024/01/03 00:45:23;;;;;;;8.70;5.28;;;3.70;99.90;;;;;;5034215;28;20031;-76
2024/01/03 00:47:49;;;;;;;10.50;4.63;;;3.80;99.90;;;;;;5033646;28;20036;-76
2024/01/03 00:50:16;;;;;;;7.50;4.10;;;3.70;99.90;;;;;;5035165;28;20033;-76
2024/01/03 00:52:42;;;;;;;8.05;4.22;;;3.70;99.90;;;;;;5034276;28;20037;-76
2024/01/03 00:55:09;;;;;;;8.18;4.70;;;3.80;99.90;;;;;;5034037;28;20028;-76
2024/01/03 00:57:36;;;;;;;8.38;4.18;;;3.70;99.90;;;;;;5035565;28;20063;-75
2024/01/03 01:00:03;;;;;;;9.52;5.43;;;3.70;99.90;;;;;;5033721;28;20080;-76
2024/01/03 01:02:29;;;;;;;11.35;5.53;;;3.50;99.90;;;;;;5032448;28;20029;-75
2024/01/03 01:04:55;;;;;;;10.60;6.20;;;3.50;99.90;;;;;;5034840;28;20035;-76
2024/01/03 01:07:21;;;;;;;11.43;5.28;;;3.70;99.90;;;;;;5033666;28;20702;-76
2024/01/03 01:09:46;;;;;;;10.15;4.82;;;3.70;99.90;;;;;;5033173;28;21723;-76
2024/01/03 01:12:12;;;;;;;7.78;3.95;;;3.70;99.90;;;;;;5034688;28;20040;-76
2024/01/03 01:14:38;;;;;;;7.75;3.88;;;3.70;99.90;;;;;;5033304;28;20044;-76
2024/01/03 01:17:04;;;;;;;9.23;4.30;;;3.80;99.90;;;;;;5033577;28;20120;-76
2024/01/03 01:19:30;;;;;;;7.90;4.22;;;3.90;99.90;;;;;;5034239;28;20072;-76
2024/01/03 01:21:55;;;;;;;6.72;3.63;;;3.80;99.90;;;;;;5033470;28;20636;-75
2024/01/03 01:24:21;;;;;;;7.30;4.07;;;3.80;99.90;;;;;;5032108;28;20040;-75
2024/01/03 01:26:47;;;;;;;6.68;3.78;;;3.70;99.90;;;;;;5034926;28;20039;-75
2024/01/03 01:29:12;;;;;;;8.38;4.28;;;3.90;99.90;;;;;;5033719;28;20037;-75
2024/01/03 01:31:39;;;;;;;8.93;3.58;;;3.80;99.90;;;;;;5033522;28;20025;-75
2024/01/03 01:34:05;;;;;;;7.20;3.92;;;3.80;99.90;;;;;;5034694;28;20033;-75
2024/01/03 01:36:30;;;;;;;5.35;3.28;;;3.90;99.90;;;;;;5033136;28;20060;-75
2024/01/03 01:38:56;;;;;;;6.78;3.83;;;3.90;99.90;;;;;;5032598;28;20071;-75
2024/01/03 01:41:22;;;;;;;9.43;4.50;;;3.90;99.90;;;;;;5034962;28;20032;-75
2024/01/03 01:43:47;;;;;;;9.65;5.45;;;3.90;99.90;;;;;;5032724;28;20493;-75
2024/01/03 01:46:13;;;;;;;8.20;4.60;;;3.80;99.90;;;;;;5031977;28;20090;-75
2024/01/03 01:48:42;;;;;;;8.45;5.20;;;3.70;99.90;;;;;;5035016;28;20128;-75
2024/01/03 01:51:09;;;;;;;8.02;5.00;;;3.60;99.90;;;;;;5032930;28;20045;-75
2024/01/03 01:53:35;;;;;;;8.63;5.15;;;3.60;99.90;;;;;;5033046;28;20068;-75
2024/01/03 01:56:01;;;;;;;8.85;4.15;;;3.60;99.90;;;;;;5035292;28;20129;-75
2024/01/03 01:58:27;;;;;;;7.13;4.15;;;3.60;99.90;;;;;;5033898;28;20044;-75
2024/01/03 02:00:53;;;;;;;5.25;3.20;;;3.70;99.90;;;;;;5032976;28;20515;-75
2024/01/03 02:03:20;;;;;;;9.25;4.28;;;3.90;99.90;;;;;;5033711;28;20040;-75
2024/01/03 02:05:46;;;;;;;8.55;3.70;;;3.90;99.90;;;;;;5033600;28;20033;-75
2024/01/03 02:08:12;;;;;;;6.60;3.50;;;3.90;99.90;;;;;;5033376;28;20651;-75
2024/01/03 02:10:37;;;;;;;6.65;4.35;;;4.00;99.90;;;;;;5032647;28;20122;-75
2024/01/03 02:13:03;;;;;;;7.80;4.43;;;4.00;99.90;;;;;;5036528;28;20471;-75
2024/01/03 02:15:29;;;;;;;9.98;5.20;;;3.80;99.90;;;;;;5035632;28;20052;-75
2024/01/03 02:17:59;;;;;;;8.90;4.47;;;3.70;99.90;;;;;;5036066;28;20029;-75
2024/01/03 02:20:30;;;;;;;7.50;5.03;;;3.70;99.90;;;;;;5036954;28;20029;-75
2024/01/03 02:22:56;;;;;;;7.15;4.70;;;3.60;99.90;;;;;;5036674;28;21126;-75
2024/01/03 02:25:21;;;;;;;7.85;5.13;;;3.70;99.90;;;;;;5036394;28;20033;-75
2024/01/03 02:27:48;;;;;;;7.93;4.85;;;3.70;99.90;;;;;;5038391;28;20120;-75
2024/01/03 02:30:15;;;;;;;7.85;4.20;;;3.80;99.90;;;;;;5037464;28;20037;-75
2024/01/03 02:32:40;;;;;;;7.45;3.33;;;3.70;99.90;;;;;;5036754;28;20441;-74
2024/01/03 02:35:06;;;;;;;6.22;3.35;;;3.80;99.90;;;;;;5037417;28;20052;-75
2024/01/03 02:37:32;;;;;;;7.38;4.10;;;3.90;99.90;;;;;;5035912;28;20410;-75
2024/01/03 02:39:58;;;;;;;9.55;4.78;;;3.80;99.90;;;;;;5037255;28;20483;-75
2024/01/03 02:42:24;;;;;;;7.57;4.63;;;3.70;99.90;;;;;;5036354;28;20037;-75
2024/01/03 02:44:49;;;;;;;7.05;4.03;;;3.60;99.90;;;;;;5037029;28;20029;-75
2024/01/03 02:47:15;;;;;;;8.07;5.03;;;3.60;99.90;;;;;;5036760;28;20037;-75
2024/01/03 02:49:40;;;;;;;11.80;4.68;;;3.60;99.90;;;;;;5037931;28;20103;-75
2024/01/03 02:52:06;;;;;;;8.43;4.25;;;3.50;99.90;;;;;;5033013;28;20025;-75
2024/01/03 02:54:32;;;;;;;6.75;3.28;;;3.60;99.90;;;;;;5036751;28;20029;-75
2024/01/03 02:56:58;;;;;;;7.03;3.40;;;3.80;99.90;;;;;;5037420;28;20044;-75
2024/01/03 02:59:27;;;;;;;10.93;4.65;;;3.90;99.90;;;;;;5035891;28;20041;-75
2024/01/03 03:01:52;;;;;;;9.05;5.05;;;3.70;99.90;;;;;;5035694;28;20120;-75
2024/01/03 03:04:18;;;;;;;10.90;4.72;;;3.60;99.90;;;;;;5037667;28;20143;-75
2024/01/03 03:06:44;;;;;;;8.38;4.53;;;3.60;99.90;;;;;;5036670;28;20363;-75
2024/01/03 03:09:09;;;;;;;6.88;3.78;;;3.60;99.90;;;;;;5035719;28;20045;-75
2024/01/03 03:11:35;;;;;;;6.18;3.45;;;3.80;99.90;;;;;;5036042;28;20040;-75
2024/01/03 03:14:01;;;;;;;9.10;4.40;;;3.80;99.90;;;;;;5036161;28;21182;-75
2024/01/03 03:16:26;;;;;;;9.27;4.88;;;3.70;99.90;;;;;;5035116;28;20048;-75
2024/01/03 03:18:52;;;;;;;6.53;3.60;;;3.70;99.90;;;;;;5036879;28;20040;-75
2024/01/03 03:21:18;;;;;;;6.90;3.50;;;3.70;99.90;;;;;;5036157;28;20036;-75
2024/01/03 03:23:43;;;;;;;6.20;3.10;;;3.80;99.90;;;;;;5036007;28;20040;-75
2024/01/03 03:26:10;;;;;;;6.32;3.47;;;3.80;99.90;;;;;;5036772;28;20519;-74
2024/01/03 03:28:36;;;;;;;6.50;3.53;;;3.90;99.90;;;;;;5035119;28;20024;-75
2024/01/03 03:31:03;;;;;;;6.65;3.90;;;3.90;99.90;;;;;;5035366;28;20033;-75
2024/01/03 03:33:31;;;;;;;8.82;4.53;;;3.80;99.90;;;;;;5037068;28;20033;-75
2024/01/03 03:35:56;;;;;;;8.27;4.57;;;3.60;99.90;;;;;;5035332;28;20135;-75
2024/01/03 03:38:22;;;;;;;10.02;5.07;;;3.50;99.90;;;;;;5035825;28;20055;-75
2024/01/03 03:40:48;;;;;;;9.68;4.82;;;3.50;99.90;;;;;;5035789;28;20049;-75
2024/01/03 03:43:13;;;;;;;9.45;4.78;;;3.50;99.90;;;;;;5035787;28;20104;-75
2024/01/03 03:45:39;;;;;;;7.10;3.95;;;3.50;99.90;;;;;;5035699;28;20104;-75
2024/01/03 03:48:05;;;;;;;6.50;4.10;;;3.60;99.90;;;;;;5037129;28;20029;-75
2024/01/03 03:50:31;;;;;;;6.28;3.60;;;3.60;99.90;;;;;;5035147;28;20483;-75
2024/01/03 03:52:56;;;;;;;8.40;3.85;;;3.60;99.90;;;;;;5033866;28;20086;-75
2024/01/03 03:55:23;;;;;;;6.88;3.58;;;3.70;99.90;;;;;;5036313;28;20024;-75
2024/01/03 03:57:48;;;;;;;6.63;3.83;;;3.70;99.90;;;;;;5034804;28;20025;-75
2024/01/03 04:00:14;;;;;;;6.68;3.65;;;3.70;99.90;;;;;;5033539;28;20025;-75
2024/01/03 04:02:40;;;;;;;7.45;3.97;;;3.70;99.90;;;;;;5034474;28;20044;-75
2024/01/03 04:05:06;;;;;;;6.07;3.28;;;3.70;99.90;;;;;;5029633;28;20032;-75
2024/01/03 04:07:32;;;;;;;6.18;3.53;;;3.70;99.90;;;;;;5027819;28;20419;-75
2024/01/03 04:09:58;;;;;;;8.23;3.70;;;3.70;99.90;;;;;;5031397;28;20043;-75
2024/01/03 04:12:23;;;;;;;6.90;3.42;;;3.80;99.90;;;;;;5030886;28;20041;-75
2024/01/03 04:14:49;;;;;;;6.40;3.75;;;3.80;99.90;;;;;;5029730;28;23593;-75
2024/01/03 04:17:16;;;;;;;6.60;3.50;;;3.80;99.90;;;;;;5028149;28;20041;-74
2024/01/03 04:19:41;;;;;;;6.78;3.72;;;3.80;99.90;;;;;;5026769;28;20033;-75
2024/01/03 04:22:08;;;;;;;7.07;3.67;;;3.90;99.90;;;;;;5026293;28;20657;-75
2024/01/03 04:24:33;;;;;;;5.63;3.55;;;4.00;99.90;;;;;;5030336;28;20041;-75
2024/01/03 04:26:59;;;;;;;8.80;3.90;;;4.00;99.90;;;;;;5031483;28;20025;-75
2024/01/03 04:29:24;;;;;;;7.43;4.13;;;4.00;99.90;;;;;;5027740;28;20513;-75
2024/01/03 04:31:50;;;;;;;10.02;3.97;;;3.90;99.90;;;;;;5027813;28;20072;-75
2024/01/03 04:34:16;;;;;;;6.75;3.70;;;3.90;99.90;;;;;;5031506;28;20491;-75
2024/01/03 04:36:41;;;;;;;6.43;3.45;;;3.90;99.90;;;;;;5030190;28;20052;-75
2024/01/03 04:39:07;;;;;;;7.75;3.65;;;3.90;99.90;;;;;;5031879;28;20679;-75
2024/01/03 04:41:33;;;;;;;8.57;4.05;;;3.90;99.90;;;;;;5031197;28;20438;-74
2024/01/03 04:43:58;;;;;;;8.00;4.05;;;3.70;99.90;;;;;;5030620;28;20423;-74
2024/01/03 04:46:24;;;;;;;7.32;3.78;;;3.70;99.90;;;;;;5031827;28;20108;-75
2024/01/03 04:48:50;;;;;;;8.68;4.65;;;3.70;99.90;;;;;;5029629;28;20045;-75
2024/01/03 04:51:16;;;;;;;6.30;4.03;;;3.70;99.90;;;;;;5029669;28;20033;-75
2024/01/03 04:53:41;;;;;;;7.68;3.88;;;3.60;99.90;;;;;;5030981;28;21611;-75
2024/01/03 04:56:07;;;;;;;8.10;3.92;;;3.70;99.90;;;;;;5031779;28;20492;-75
2024/01/03 04:58:33;;;;;;;7.40;4.22;;;3.80;99.90;;;;;;5028248;28;20025;-75
2024/01/03 05:00:59;;;;;;;7.15;4.13;;;3.70;99.90;;;;;;5027360;28;20033;-75
2024/01/03 05:03:26;;;;;;;7.28;4.68;;;3.70;99.90;;;;;;5027816;28;20039;-75
2024/01/03 05:05:51;;;;;;;6.82;3.75;;;3.70;99.90;;;;;;5026796;28;20033;-74
2024/01/03 05:08:17;;;;;;;7.50;4.65;;;3.70;99.90;;;;;;5026818;28;20041;-75
2024/01/03 05:10:43;;;;;;;7.53;4.43;;;3.70;99.90;;;;;;5029113;28;20467;-75
2024/01/03 05:13:08;;;;;;;6.38;3.47;;;3.80;99.90;;;;;;5027462;28;20151;-75
2024/01/03 05:15:34;;;;;;;8.23;3.67;;;3.80;99.90;;;;;;5025863;28;20139;-75
2024/01/03 05:17:59;;;;;;;5.65;3.45;;;3.80;99.90;;;;;;5027666;28;20064;-75
2024/01/03 05:20:25;;;;;;;5.97;3.35;;;3.80;99.90;;;;;;5026547;28;20166;-75
2024/01/03 05:22:51;;;;;;;9.05;3.60;;;3.70;99.90;;;;;;5026927;28;20116;-75
2024/01/03 05:25:16;;;;;;;6.25;3.17;;;3.80;99.90;;;;;;5028442;28;20033;-75
2024/01/03 05:27:42;;;;;;;7.03;3.75;;;3.70;99.90;;;;;;5025979;28;20040;-74
2024/01/03 05:30:08;;;;;;;5.80;2.92;;;3.60;99.90;;;;;;5026832;28;20044;-75
2024/01/03 05:32:34;;;;;;;5.75;3.35;;;3.70;99.90;;;;;;5028410;28;20028;-75
2024/01/03 05:35:00;;;;;;;7.82;4.28;;;3.70;99.90;;;;;;5026890;28;20053;-75
2024/01/03 05:37:25;;;;;;;8.25;3.92;;;3.80;99.90;;;;;;5027133;28;20041;-75
2024/01/03 05:39:51;;;;;;;7.57;3.78;;;3.80;99.90;;;;;;5027342;28;20560;-75
2024/01/03 05:42:17;;;;;;;7.32;3.38;;;3.80;99.90;;;;;;5027257;28;20262;-75
2024/01/03 05:44:42;;;;;;;7.53;3.78;;;3.90;99.90;;;;;;5026802;28;20044;-75
2024/01/03 05:47:08;;;;;;;8.23;4.47;;;3.80;99.90;;;;;;5028277;28;20032;-75
2024/01/03 05:49:34;;;;;;;6.45;3.60;;;3.80;99.90;;;;;;5026584;28;20033;-75
2024/01/03 05:52:01;;;;;;;7.85;3.60;;;3.80;99.90;;;;;;5026548;28;20096;-75
2024/01/03 05:54:27;;;;;;;7.10;4.05;;;3.80;99.90;;;;;;5027531;28;20032;-75
2024/01/03 05:56:53;;;;;;;7.03;3.97;;;3.70;99.90;;;;;;5026489;28;20132;-75
2024/01/03 05:59:20;;;;;;;7.88;3.92;;;3.70;99.90;;;;;;5026872;28;20036;-75
2024/01/03 06:01:45;;;;;;;7.47;4.20;;;3.70;99.90;;;;;;5027033;28;20072;-75
2024/01/03 06:04:13;;;;;;;7.63;3.97;;;3.80;99.90;;;;;;5026967;28;20120;-75
2024/01/03 06:06:39;;;;;;;6.38;4.18;;;3.80;99.90;;;;;;5025025;28;20032;-75
2024/01/03 06:09:05;;;;;;;6.93;3.78;;;3.70;99.90;;;;;;5025664;28;20032;-75
2024/01/03 06:11:31;;;;;;;8.13;4.25;;;3.70;99.90;;;;;;5027748;28;20090;-75
2024/01/03 06:13:56;;;;;;;7.55;3.95;;;3.70;99.90;;;;;;5027006;28;20090;-75
2024/01/03 06:16:22;;;;;;;6.32;4.05;;;3.70;99.90;;;;;;5024739;28;20041;-75
2024/01/03 06:18:47;;;;;;;5.50;3.45;;;3.70;99.90;;;;;;5026961;28;20130;-75
2024/01/03 06:21:13;;;;;;;7.15;3.78;;;3.80;99.90;;;;;;5026623;28;20041;-75
2024/01/03 06:23:40;;;;;;;6.22;3.63;;;3.90;99.90;;;;;;5025440;28;20073;-75
2024/01/03 06:26:07;;;;;;;6.60;3.78;;;4.00;99.90;;;;;;5027792;28;20029;-75
2024/01/03 06:28:33;;;;;;;5.35;3.28;;;4.10;99.90;;;;;;5025949;28;20025;-75
2024/01/03 06:30:59;;;;;;;7.70;3.33;;;4.00;99.90;;;;;;5026311;28;20094;-75
2024/01/03 06:33:24;;;;;;;7.28;3.67;;;4.00;99.90;;;;;;5027918;28;20029;-74
2024/01/03 06:35:50;;;;;;;5.40;3.22;;;4.00;99.90;;;;;;5026317;28;20111;-75
2024/01/03 06:38:16;;;;;;;5.68;3.55;;;4.00;99.90;;;;;;5024328;28;20501;-75
2024/01/03 06:40:41;;;;;;;7.25;4.07;;;4.10;99.90;;;;;;5027802;28;20549;-75
2024/01/03 06:43:07;;;;;;;8.00;3.55;;;4.10;99.90;;;;;;5027088;28;20033;-75
2024/01/03 06:45:33;;;;;;;6.18;3.47;;;4.20;99.90;;;;;;5025886;28;20021;-74
2024/01/03 06:47:58;;;;;;;8.25;4.07;;;4.20;99.90;;;;;;5031951;28;20989;-73
2024/01/03 06:50:24;;;;;;;5.93;2.88;;;4.00;99.90;;;;;;5028973;28;20056;-74
2024/01/03 06:52:50;;;;;;;5.25;3.10;;;4.00;99.90;;;;;;5024851;28;20043;-75
2024/01/03 06:55:15;;;;;;;5.32;3.05;;;4.10;99.90;;;;;;5027386;28;20057;-75
2024/01/03 06:57:44;;;;;;;5.85;3.00;;;4.10;99.90;;;;;;5025387;28;20064;-75
2024/01/03 07:00:10;;;;;;;7.57;3.10;;;4.20;99.90;;;;;;5027598;28;20028;-75
2024/01/03 07:02:36;;;;;;;5.60;3.05;;;4.20;99.90;;;;;;5030869;28;20041;-76
2024/01/03 07:05:02;;;;;;;5.70;3.20;;;4.20;99.90;;;;;;5028968;28;20708;-75
2024/01/03 07:07:27;;;;;;;6.40;3.47;;;4.20;99.90;;;;;;5027627;28;20036;-76
2024/01/03 07:09:53;;;;;;;6.55;3.22;;;4.10;99.90;;;;;;5030660;28;20103;-76
2024/01/03 07:12:19;;;;;;;6.35;3.40;;;4.20;99.90;;;;;;5028751;28;20073;-76
2024/01/03 07:14:45;;;;;;;7.93;3.70;;;4.30;99.90;;;;;;5029072;28;20102;-76
2024/01/03 07:17:10;;;;;;;14.05;6.53;;;4.20;99.90;;;;;;5030530;28;20514;-79
2024/01/03 07:19:36;;;;;;;7.82;4.55;;;4.10;99.90;;;;;;5028391;28;20483;-76
2024/01/03 07:22:02;;;;;;;11.10;5.38;;;4.10;99.90;;;;;;5027917;28;20041;-75
2024/01/03 07:24:27;;;;;;;10.60;4.70;;;4.20;99.90;;;;;;5030108;28;20055;-76
2024/01/03 07:26:53;;;;;;;7.55;4.47;;;4.20;99.90;;;;;;5027844;28;20509;-76
2024/01/03 07:29:19;;;;;;;6.28;3.53;;;4.10;99.90;;;;;;5028307;28;20929;-77
2024/01/03 07:31:44;;;;;;;7.60;3.60;;;4.10;99.90;;;;;;5029995;28;20033;-75
2024/01/03 07:34:11;;;;;;;6.18;3.30;;;4.20;99.90;;;;;;5028551;28;20033;-76
2024/01/03 07:36:36;;;;;;;6.82;3.75;;;4.20;99.90;;;;;;5029116;28;20899;-75
2024/01/03 07:39:03;;;;;;;7.35;3.60;;;4.30;99.90;;;;;;5029146;28;20029;-74
2024/01/03 07:41:30;;;;;;;5.70;3.35;;;4.30;99.90;;;;;;5027845;28;20073;-75
2024/01/03 07:43:57;;;;;;;7.45;3.63;;;4.30;99.90;;;;;;5027247;28;20037;-77
2024/01/03 07:46:23;;;;;;;6.95;3.30;;;4.30;99.90;;;;;;5028170;28;21218;-77
2024/01/03 07:48:49;;;;;;;6.22;3.40;;;4.40;99.90;;;;;;5028851;28;20028;-74
2024/01/03 07:51:18;;;;;;;6.03;3.38;;;4.60;99.90;;;;;;5028141;28;20040;-75
2024/01/03 07:53:44;;;;;;;8.65;3.42;;;4.60;99.90;;;;;;5026243;28;20470;-74
2024/01/03 07:56:10;;;;;;;7.25;3.55;;;4.60;99.90;;;;;;5030902;28;20052;-76
2024/01/03 07:58:36;;;;;;;6.47;3.55;;;4.60;99.90;;;;;;5027218;28;20032;-77
2024/01/03 08:01:01;;;;;;;8.23;3.63;;;4.60;99.90;;;;;;5035746;28;20494;-78
2024/01/03 08:03:27;;;;;;;5.75;3.17;;;4.60;99.90;;;;;;5021992;28;20112;-77
2024/01/03 08:05:53;;;;;;;6.45;3.67;;;4.70;99.90;;;;;;5027417;28;20025;-79
2024/01/03 08:08:19;;;;;;;7.63;3.45;;;4.70;99.90;;;;;;5027213;28;20087;-79
2024/01/03 08:10:45;;;;;;;8.55;5.50;;;4.70;99.90;;;;;;5029830;28;20048;-81
2024/01/03 08:13:12;;;;;;;5.88;3.35;;;4.70;99.90;;;;;;5023713;28;20056;-80
2024/01/03 08:15:38;;;;;;;6.22;3.47;;;4.70;99.90;;;;;;5025536;28;20116;-80
2024/01/03 08:18:03;;;;;;;6.05;3.05;;;4.70;99.90;;;;;;5028776;28;20033;-80
2024/01/03 08:20:29;;;;;;;5.28;3.10;;;4.80;99.90;;;;;;5027855;28;20044;-79
2024/01/03 08:22:55;;;;;;;6.25;3.20;;;4.70;99.90;;;;;;5027134;28;20029;-80
2024/01/03 08:25:22;;;;;;;6.80;3.30;;;4.70;99.90;;;;;;5029026;28;20904;-79
2024/01/03 08:27:47;;;;;;;6.15;3.00;;;4.80;99.90;;;;;;5027052;28;20033;-79
2024/01/03 08:30:13;;;;;;;5.55;3.05;;;4.80;99.90;;;;;;5027115;28;20098;-77
2024/01/03 08:32:40;;;;;;;5.88;3.10;;;4.80;99.90;;;;;;5026487;28;20045;-77
2024/01/03 08:35:09;;;;;;;6.53;3.67;;;4.80;99.90;;;;;;5027246;28;20672;-77
2024/01/03 08:37:35;;;;;;;5.68;3.00;;;4.80;99.90;;;;;;5027843;28;21415;-76
2024/01/03 08:40:03;;;;;;;6.65;2.83;;;4.80;99.90;;;;;;5026786;28;20037;-76
2024/01/03 08:42:29;;;;;;;6.60;3.63;;;4.90;99.90;;;;;;5026763;28;20038;-76
2024/01/03 08:44:54;;;;;;;7.03;3.53;;;4.80;99.90;;;;;;5028173;28;20052;-76
2024/01/03 08:47:20;;;;;;;6.07;3.30;;;4.50;99.90;;;;;;5028418;28;20078;-76
2024/01/03 08:49:46;;;;;;;8.48;4.57;;;4.70;99.90;;;;;;5027555;28;20095;-77
2024/01/03 08:52:12;;;;;;;7.25;3.92;;;4.50;99.90;;;;;;5026441;28;20056;-77
2024/01/03 08:54:39;;;;;;;7.03;3.90;;;4.40;99.90;;;;;;5027867;28;20124;-76
2024/01/03 08:57:04;;;;;;;8.88;3.40;;;4.50;99.90;;;;;;5024922;28;20040;-77
2024/01/03 08:59:30;;;;;;;6.38;3.72;;;5.00;99.90;;;;;;5024622;28;20818;-78
2024/01/03 09:01:56;;;;;;;6.88;3.50;;;4.70;99.90;;;;;;5024067;28;20531;-77
2024/01/03 09:04:22;;;;;;;5.28;3.40;;;4.60;99.90;;;;;;5025511;28;20102;-77
2024/01/03 09:06:51;;;;;;;6.13;3.30;;;4.60;99.90;;;;;;5028708;28;20600;-76
2024/01/03 09:09:17;;;;;;;6.55;3.60;;;4.70;99.90;;;;;;5028912;28;20145;-77
2024/01/03 09:11:42;;;;;;;6.72;3.65;;;4.60;99.90;;;;;;5028046;28;20485;-77
2024/01/03 09:14:08;;;;;;;5.60;3.00;;;4.70;99.90;;;;;;5028541;28;20074;-77
2024/01/03 09:16:34;;;;;;;8.80;3.45;;;4.70;99.90;;;;;;5029359;28;20049;-77
2024/01/03 09:18:59;;;;;;;6.70;3.22;;;4.70;99.90;;;;;;5025720;28;20039;-77
2024/01/03 09:21:27;;;;;;;6.00;2.78;;;4.70;99.90;;;;;;5028206;28;20021;-80
2024/01/03 09:23:52;;;;;;;7.03;3.10;;;4.70;99.90;;;;;;5026713;28;20029;-77
2024/01/03 09:26:24;;;;;;;8.00;3.97;;;4.70;99.90;;;;;;5027142;28;20058;-76
2024/01/03 09:28:52;;;;;;;6.38;3.58;;;4.80;99.90;;;;;;5025554;28;20040;-77
2024/01/03 09:31:18;;;;;;;10.93;3.05;;;4.80;99.90;;;;;;5026000;28;20542;-76
2024/01/03 09:33:44;;;;;;;5.38;3.03;;;4.80;99.90;;;;;;5027229;28;20036;-76
2024/01/03 09:36:19;;;;;;;7.38;3.60;;;4.80;99.90;;;;;;5024710;28;20053;-76
2024/01/03 09:38:46;;;;;;;9.95;3.58;;;4.80;99.90;;;;;;5020499;28;20056;-76
2024/01/03 09:41:12;;;;;;;11.40;7.35;;;5.00;99.90;;;;;;5025499;28;20037;-76
2024/01/03 09:43:45;;;;;;;9.05;4.70;;;5.10;99.90;;;;;;5028339;28;20045;-76
2024/01/03 09:46:11;;;;;;;8.15;3.50;;;5.20;99.90;;;;;;5027623;28;20029;-76
2024/01/03 09:48:41;;;;;;;8.82;3.58;;;5.30;99.90;;;;;;5028204;28;20058;-76
2024/01/03 09:51:10;;;;;;;7.28;4.57;;;5.40;99.90;;;;;;5022351;28;20041;-77
2024/01/03 09:53:36;;;;;;;9.00;4.60;;;5.40;99.90;;;;;;5026969;28;20032;-78
2024/01/03 09:56:02;;;;;;;6.93;4.03;;;5.40;99.90;;;;;;5026167;28;20422;-76
2024/01/03 09:58:28;;;;;;;7.47;3.65;;;5.40;99.90;;;;;;5027646;28;20037;-76
2024/01/03 10:00:54;;;;;;;13.40;6.28;;;5.80;99.90;;;;;;5029102;28;20036;-78
2024/01/03 10:03:20;;;;;;;7.97;4.85;;;5.60;99.90;;;;;;5028563;28;20033;-77
2024/01/03 10:05:46;;;;;;;5.80;3.95;;;5.70;99.90;;;;;;5029931;28;20032;-76
2024/01/03 10:08:17;;;;;;;7.00;3.72;;;5.70;99.90;;;;;;5027895;28;20407;-77
2024/01/03 10:10:45;;;;;;;8.60;3.38;;;5.60;99.90;;;;;;5028657;28;20041;-76
2024/01/03 10:13:19;;;;;;;6.07;3.25;;;5.60;99.90;;;;;;5031566;28;20048;-76
2024/01/03 10:15:46;;;;;;;10.45;3.67;;;5.60;99.90;;;;;;5030812;28;20037;-76
2024/01/03 10:18:15;;;;;;;6.90;3.90;;;5.60;99.90;;;;;;5030203;28;20040;-76
2024/01/03 10:20:41;;;;;;;6.35;3.42;;;5.60;99.90;;;;;;5031133;28;20378;-77
2024/01/03 10:23:12;;;;;;;8.73;3.92;;;5.60;99.90;;;;;;5031099;28;20028;-77
2024/01/03 10:25:38;;;;;;;6.38;3.53;;;5.40;99.90;;;;;;5030595;28;20033;-76
2024/01/03 10:28:10;;;;;;;6.43;3.60;;;5.50;99.90;;;;;;5030647;28;20037;-76
2024/01/03 10:30:36;;;;;;;5.93;3.13;;;5.50;99.90;;;;;;5031909;28;21088;-76
2024/01/03 10:33:09;;;;;;;6.35;3.10;;;5.50;99.90;;;;;;5030166;28;20570;-77
2024/01/03 10:35:36;;;;;;;6.30;2.90;;;5.50;99.90;;;;;;5032941;28;20067;-76
2024/01/03 10:38:03;;;;;;;5.13;2.72;;;5.50;99.90;;;;;;5034889;28;20033;-76
2024/01/03 10:40:31;;;;;;;7.75;3.83;;;5.40;99.90;;;;;;5035237;28;20703;-78
2024/01/03 10:42:57;;;;;;;6.68;3.40;;;5.40;99.90;;;;;;5034185;28;20036;-77
2024/01/03 10:45:24;;;;;;;8.77;3.58;;;5.40;99.90;;;;;;5033978;28;20040;-77
2024/01/03 10:47:51;;;;;;;7.43;3.53;;;5.40;99.90;;;;;;5035623;28;20075;-77
2024/01/03 10:50:16;;;;;;;6.70;3.63;;;5.40;99.90;;;;;;5034288;28;20033;-75
2024/01/03 10:52:44;;;;;;;7.85;3.15;;;5.40;99.90;;;;;;5033121;28;20040;-76
2024/01/03 10:55:22;;;;;;;7.43;2.70;;;5.40;99.90;;;;;;5035213;28;20045;-77
2024/01/03 10:58:04;;;;;;;6.18;3.22;;;5.50;99.90;;;;;;5034768;28;20041;-77
2024/01/03 11:01:07;;;;;;;6.40;3.22;;;5.70;99.90;;;;;;5034554;28;20041;-77
2024/01/03 11:04:26;;;;;;;7.75;3.30;;;5.70;99.90;;;;;;5033948;28;20037;-76
2024/01/03 11:07:20;;;;;;;4.47;2.80;;;5.80;99.90;;;;;;5030271;28;20124;-77
2024/01/03 11:09:46;;;;;;;6.20;3.08;;;6.10;99.90;;;;;;5034337;28;20179;-77
2024/01/03 11:12:15;;;;;;;8.52;3.58;;;6.30;99.90;;;;;;5033834;28;20040;-76
2024/01/03 11:14:41;;;;;;;6.20;3.08;;;6.50;99.90;;;;;;5033637;28;20033;-77
2024/01/03 11:17:09;;;;;;;5.53;2.90;;;6.60;99.90;;;;;;5034221;28;20063;-78
2024/01/03 11:19:37;;;;;;;5.57;3.08;;;6.50;99.90;;;;;;5033627;28;20044;-76
2024/01/03 11:22:03;;;;;;;8.93;3.25;;;6.60;99.90;;;;;;5033099;28;20033;-77
2024/01/03 11:24:29;;;;;;;4.70;2.65;;;6.60;99.90;;;;;;5034683;28;20115;-77
2024/01/03 11:26:55;;;;;;;6.82;3.33;;;6.50;99.90;;;;;;5033107;28;20047;-77
2024/01/03 11:29:43;;;;;;;5.78;3.20;;;6.60;99.90;;;;;;5032715;28;20043;-76
2024/01/03 11:32:26;;;;;;;5.32;3.03;;;6.50;99.90;;;;;;5032524;28;20052;-76
2024/01/03 11:34:53;;;;;;;5.00;2.80;;;6.90;99.90;;;;;;5033219;28;20048;-76
2024/01/03 11:37:18;;;;;;;5.82;3.25;;;6.90;99.90;;;;;;5032658;28;20703;-76
2024/01/03 11:39:46;;;;;;;6.82;3.40;;;6.90;99.90;;;;;;5034023;28;20037;-77
2024/01/03 11:42:19;;;;;;;5.45;3.17;;;6.90;99.90;;;;;;5033776;28;20485;-77
2024/01/03 11:44:45;;;;;;;9.85;4.10;;;7.00;99.90;;;;;;5033313;28;20112;-76
2024/01/03 11:47:12;;;;;;;6.13;3.70;;;7.10;99.90;;;;;;5032714;28;20446;-76
2024/01/03 11:49:37;;;;;;;5.32;3.45;;;7.20;99.90;;;;;;5032438;28;20042;-76
2024/01/03 11:52:03;;;;;;;4.63;2.58;;;7.20;99.90;;;;;;5031996;28;20036;-76
2024/01/03 11:54:32;;;;;;;5.97;2.70;;;7.00;99.90;;;;;;5033758;28;20044;-77
2024/01/03 11:56:58;;;;;;;6.45;2.80;;;7.10;99.90;;;;;;5032533;28;20094;-77
2024/01/03 11:59:25;;;;;;;6.10;2.95;;;7.40;99.90;;;;;;5031993;28;20123;-77
2024/01/03 12:01:58;;;;;;;5.97;3.38;;;7.50;99.90;;;;;;5033238;28;20126;-77
2024/01/03 12:04:24;;;;;;;4.57;2.60;;;7.70;99.90;;;;;;5032598;28;20033;-77
2024/01/03 12:06:55;;;;;;;4.82;2.50;;;7.70;99.90;;;;;;5032186;28;20083;-76
2024/01/03 12:09:21;;;;;;;6.53;2.80;;;7.60;99.90;;;;;;5031610;28;20390;-77
2024/01/03 12:11:46;;;;;;;4.80;2.38;;;7.70;99.90;;;;;;5033077;28;20033;-77
2024/01/03 12:14:16;;;;;;;4.93;2.63;;;7.70;99.90;;;;;;5031490;28;20041;-77
2024/01/03 12:16:55;;;;;;;4.93;2.72;;;7.70;99.90;;;;;;5029913;28;20053;-77
2024/01/03 12:19:28;;;;;;;5.60;3.05;;;7.70;99.90;;;;;;5025511;28;20036;-80
2024/01/03 12:21:56;;;;;;;5.65;2.83;;;7.90;99.90;;;;;;5029282;28;20033;-77
2024/01/03 12:24:22;;;;;;;9.57;2.60;;;8.00;99.90;;;;;;5028911;28;20040;-75
2024/01/03 12:26:50;;;;;;;4.82;2.47;;;8.10;99.90;;;;;;5029293;28;20057;-78
2024/01/03 12:29:16;;;;;;;7.18;2.50;;;8.30;99.90;;;;;;5030866;28;20041;-76
2024/01/03 12:31:42;;;;;;;8.48;2.53;;;8.10;99.90;;;;;;5032870;28;20037;-78
2024/01/03 12:34:08;;;;;;;8.27;3.17;;;7.90;99.90;;;;;;5032214;28;20040;-76
2024/01/03 12:36:34;;;;;;;7.93;2.88;;;8.00;99.90;;;;;;5029657;28;20111;-78
2024/01/03 12:39:00;;;;;;;6.47;5.25;;;8.10;99.90;;;;;;5027940;28;20473;-75
2024/01/03 12:41:26;;;;;;;6.88;5.70;;;8.20;99.90;;;;;;5025000;28;20029;-78
2024/01/03 12:43:52;;;;;;;9.90;6.45;;;8.20;99.90;;;;;;5028304;28;20402;-77
2024/01/03 12:46:17;;;;;;;8.45;6.85;;;8.10;99.90;;;;;;5027003;28;20660;-77
2024/01/03 12:48:44;;;;;;;30.38;21.20;;;8.10;99.90;;;;;;5027693;28;20054;-77
2024/01/03 12:51:10;;;;;;;22.83;15.70;;;8.10;99.90;;;;;;5029303;28;20044;-77
2024/01/03 12:53:37;;;;;;;11.10;7.13;;;8.20;99.90;;;;;;5027821;28;20037;-78